Terminal Aerodrome Forecast
Issued by NWS El Paso, TX

Home | Current Version | Previous Version | Text Only | Print | Product List | Glossary On
Versions: 1 2 3 4 5 6 7 8 9 10 11 12 13 14
000
FTUS44 KEPZ 301739
TAFELP
TAF
KELP 301739Z 3018/0118 20007KT P6SM SCT150 SCT250
     FM302300 24008KT P6SM VCTS SCT060CB SCT150 BKN250
     FM010300 VRB04KT P6SM FEW060 SCT150 BKN250=

USA.gov is the U.S. government's official web portal to all federal, state and local government web resources and services.